CheckWX is a tool to help pilots better visualize weather data.  It is not intended as a substitute for an official pre-flight weather briefing.

04:40:51 UTC

KLNS TAF
Lancaster Airport
Lancaster, Pennsylvania, USA
KLNS 230351Z 2304/2324 29018G28KT P6SM BKN060 FM231300 31024G31KT P6SM SKC FM232200 30015G25KT P6SM SKC

Mar-23@
04:00 UTC

Mar-23 @ 04:00 UTC

Mar-23@
13:00 UTC

Mar-23 @ 13:00 UTC

KLNS 230351Z 2304/2324 29018G28KT P6SM BKN060
Wind
  • 290° at 18 KTS
  • {Gusting to 28 KTS
Cloud Levels
  • Broken at 6,000' AGL

Mar-23@
13:00 UTC

Mar-23 @ 13:00 UTC

Mar-23@
22:00 UTC

Mar-23 @ 22:00 UTC

FM231300 31024G31KT P6SM SKC

From

From Standard forecast or significant change

Wind
  • 310° at 24 KTS
  • {Gusting to 31 KTS
Cloud Levels
  • Clear skies

Mar-23@
22:00 UTC

Mar-23 @ 22:00 UTC

Mar-24@
00:00 UTC

Mar-24 @ 00:00 UTC

FM232200 30015G25KT P6SM SKC

From

From Standard forecast or significant change

Wind
  • 300° at 15 KTS
  • {Gusting to 25 KTS
Cloud Levels
  • Clear skies